createdAt,value
2023-08-17T00:01:45.011Z,101209.67
2023-08-17T00:04:15.997Z,101210.05
2023-08-17T00:06:48.095Z,101210.29
2023-08-17T00:09:19.079Z,101206.13
2023-08-17T00:11:49.793Z,101205.19
2023-08-17T00:14:20.496Z,101199.57
2023-08-17T00:16:53.146Z,101196.66
2023-08-17T00:19:24.490Z,101187.36
2023-08-17T00:21:56.452Z,101186.02
2023-08-17T00:24:27.170Z,101178.05
2023-08-17T00:26:58.035Z,101177.51
2023-08-17T00:29:28.787Z,101172.38
2023-08-17T00:31:59.863Z,101172.86
2023-08-17T00:34:30.812Z,101170.13
2023-08-17T00:37:01.758Z,101172.94
2023-08-17T00:39:32.693Z,101175.23
2023-08-17T00:42:03.365Z,101177.48
2023-08-17T00:44:34.104Z,101178.50
2023-08-17T00:47:05.858Z,101182.57
2023-08-17T00:49:37.847Z,101178.08
2023-08-17T00:52:09.678Z,101172.29
2023-08-17T00:54:41.450Z,101172.32
2023-08-17T00:57:12.424Z,101176.05
2023-08-17T00:59:47.169Z,101171.34
2023-08-17T01:02:23.645Z,101169.41
2023-08-17T01:04:54.516Z,101172.23
2023-08-17T01:07:25.807Z,101170.55
2023-08-17T01:09:56.808Z,101169.93
2023-08-17T01:12:31.663Z,101171.27
2023-08-17T01:15:23.250Z,101166.84
2023-08-17T01:17:58.797Z,101171.00
2023-08-17T01:20:32.542Z,101173.10
2023-08-17T01:23:08.496Z,101173.23
2023-08-17T01:25:39.654Z,101176.04
2023-08-17T01:28:10.529Z,101179.41
2023-08-17T01:30:47.145Z,101187.34
2023-08-17T01:33:23.257Z,101195.45
2023-08-17T01:36:03.630Z,101205.13
2023-08-17T01:38:35.255Z,101207.45
2023-08-17T01:41:09.232Z,101202.88
2023-08-17T01:43:40.586Z,101207.00
2023-08-17T01:46:12.020Z,101211.80
2023-08-17T01:48:43.308Z,101230.11
2023-08-17T01:51:19.206Z,101242.48
2023-08-17T01:53:50.322Z,101243.59
2023-08-17T01:56:21.171Z,101240.05
2023-08-17T01:58:51.816Z,101237.64
2023-08-17T02:01:22.660Z,101235.33
2023-08-17T02:03:54.110Z,101235.43
2023-08-17T02:06:25.530Z,101232.48
2023-08-17T02:08:56.381Z,101227.58
2023-08-17T02:11:28.135Z,101228.96
2023-08-17T02:13:58.847Z,101227.34
2023-08-17T02:16:29.983Z,101223.87
2023-08-17T02:19:00.536Z,101215.09
2023-08-17T02:21:31.311Z,101213.77
2023-08-17T02:24:02.266Z,101201.34
2023-08-17T02:26:33.310Z,101192.99
2023-08-17T02:29:04.399Z,101187.78
2023-08-17T02:31:35.742Z,101190.10
2023-08-17T02:34:07.150Z,101185.30
2023-08-17T02:36:37.782Z,101182.96
2023-08-17T02:39:09.178Z,101179.33
2023-08-17T02:41:40.350Z,101164.36
2023-08-17T02:44:11.520Z,101158.70
2023-08-17T02:46:42.116Z,101154.66
2023-08-17T02:49:13.038Z,101155.91
2023-08-17T02:51:44.120Z,101152.23
2023-08-17T02:54:14.753Z,101152.10
2023-08-17T02:56:45.720Z,101144.60
2023-08-17T02:59:16.317Z,101141.84
2023-08-17T03:01:47.746Z,101138.00
2023-08-17T03:04:18.330Z,101134.83
2023-08-17T03:06:49.279Z,101130.30
2023-08-17T03:09:19.759Z,101130.46
2023-08-17T03:11:50.706Z,101127.16
2023-08-17T03:14:21.680Z,101117.01
2023-08-17T03:16:52.921Z,101111.92
2023-08-17T03:19:23.491Z,101103.58
2023-08-17T03:21:54.856Z,101104.92
2023-08-17T03:24:25.777Z,101106.80
2023-08-17T03:26:56.855Z,101108.73
2023-08-17T03:29:28.181Z,101114.16
2023-08-17T03:31:58.903Z,101112.48
2023-08-17T03:34:29.844Z,101107.19
2023-08-17T03:37:01.125Z,101108.92
2023-08-17T03:39:31.992Z,101105.54
2023-08-17T03:42:03.248Z,101111.08
2023-08-17T03:44:34.165Z,101111.79
2023-08-17T03:47:04.841Z,101114.45
2023-08-17T03:49:35.711Z,101122.76
2023-08-17T03:52:07.377Z,101120.81
2023-08-17T03:54:38.148Z,101121.95
2023-08-17T03:57:09.316Z,101117.60
2023-08-17T03:59:39.995Z,101121.40
2023-08-17T04:02:10.900Z,101118.52
2023-08-17T04:04:41.579Z,101124.39
2023-08-17T04:07:12.949Z,101121.92
2023-08-17T04:09:47.246Z,101120.02
2023-08-17T04:12:17.856Z,101125.34
2023-08-17T04:14:48.919Z,101118.98
2023-08-17T04:17:19.935Z,101117.95
2023-08-17T04:19:51.138Z,101119.00
2023-08-17T04:22:21.776Z,101122.59
2023-08-17T04:24:52.723Z,101124.75
2023-08-17T04:27:23.737Z,101130.20
2023-08-17T04:29:54.942Z,101135.25
2023-08-17T04:32:25.703Z,101135.32
2023-08-17T04:34:56.602Z,101136.78
2023-08-17T04:37:28.278Z,101140.55
2023-08-17T04:39:59.706Z,101140.84
2023-08-17T04:42:30.584Z,101140.05
2023-08-17T04:45:01.631Z,101138.92
2023-08-17T04:47:32.199Z,101136.69
2023-08-17T04:50:03.053Z,101144.38
2023-08-17T04:52:33.820Z,101138.36
2023-08-17T04:55:05.018Z,101137.65
2023-08-17T04:57:36.000Z,101135.30
2023-08-17T05:00:10.782Z,101132.41
2023-08-17T05:02:41.727Z,101134.26
2023-08-17T05:05:15.138Z,101136.11
2023-08-17T05:07:45.750Z,101133.48
2023-08-17T05:10:16.740Z,101134.40
2023-08-17T05:12:48.151Z,101132.78
2023-08-17T05:15:18.699Z,101126.77
2023-08-17T05:17:49.392Z,101133.00
2023-08-17T05:20:21.962Z,101135.16
2023-08-17T05:22:52.620Z,101135.83
2023-08-17T05:25:24.073Z,101135.73
2023-08-17T05:27:54.906Z,101138.88
2023-08-17T05:30:25.648Z,101136.83
2023-08-17T05:32:56.906Z,101136.39
2023-08-17T05:35:27.960Z,101134.92
2023-08-17T05:37:59.515Z,101134.43
2023-08-17T05:40:31.348Z,101136.49
2023-08-17T05:43:02.018Z,101137.89
2023-08-17T05:45:32.658Z,101137.20
2023-08-17T05:48:03.708Z,101136.79
2023-08-17T05:50:34.735Z,101143.13
2023-08-17T05:53:05.696Z,101144.08
2023-08-17T05:55:36.620Z,101143.79
2023-08-17T05:58:07.501Z,101141.98
2023-08-17T06:00:38.729Z,101144.77
2023-08-17T06:03:10.165Z,101145.05
2023-08-17T06:05:41.717Z,101143.21
2023-08-17T06:08:12.245Z,101142.53
2023-08-17T06:10:43.100Z,101147.38
2023-08-17T06:13:14.016Z,101147.73
2023-08-17T06:15:44.673Z,101145.45
2023-08-17T06:18:15.384Z,101147.64
2023-08-17T06:20:47.559Z,101145.33
2023-08-17T06:23:18.152Z,101148.96
2023-08-17T06:25:48.786Z,101147.40
2023-08-17T06:28:20.055Z,101147.48
2023-08-17T06:30:53.480Z,101150.94
2023-08-17T06:33:25.096Z,101149.83
2023-08-17T06:35:55.940Z,101151.95
2023-08-17T06:38:26.897Z,101156.73
2023-08-17T06:40:57.636Z,101157.70
2023-08-17T06:43:28.189Z,101154.56
2023-08-17T06:46:01.522Z,101158.50
2023-08-17T06:48:33.453Z,101158.08
2023-08-17T06:51:05.861Z,101156.70
2023-08-17T06:53:37.121Z,101156.70
2023-08-17T06:56:08.692Z,101156.80
2023-08-17T06:58:39.546Z,101158.13
2023-08-17T07:01:10.883Z,101159.23
2023-08-17T07:03:41.812Z,101157.56
2023-08-17T07:06:13.861Z,101160.75
2023-08-17T07:08:44.658Z,101162.58
2023-08-17T07:11:15.388Z,101157.36
2023-08-17T07:13:46.738Z,101161.52
2023-08-17T07:16:17.438Z,101160.48
2023-08-17T07:18:48.163Z,101159.30
2023-08-17T07:21:18.606Z,101161.67
2023-08-17T07:23:49.923Z,101167.72
2023-08-17T07:26:21.519Z,101170.06
2023-08-17T07:28:52.477Z,101168.50
2023-08-17T07:31:23.154Z,101169.28
2023-08-17T07:33:53.944Z,101168.93
2023-08-17T07:36:24.807Z,101167.35
2023-08-17T07:38:55.723Z,101172.95
2023-08-17T07:41:27.097Z,101177.48
2023-08-17T07:43:58.282Z,101177.13
2023-08-17T07:46:28.927Z,101176.30
2023-08-17T07:48:59.898Z,101180.87
2023-08-17T07:51:31.140Z,101175.67
2023-08-17T07:54:02.527Z,101175.02
2023-08-17T07:56:33.300Z,101174.55
2023-08-17T07:59:04.074Z,101174.81
2023-08-17T08:01:35.389Z,101171.26
2023-08-17T08:04:06.546Z,101172.54
2023-08-17T08:06:37.319Z,101174.02
2023-08-17T08:09:08.922Z,101178.52
2023-08-17T08:11:39.474Z,101177.77
2023-08-17T08:14:10.591Z,101178.73
2023-08-17T08:16:41.836Z,101179.66
2023-08-17T08:19:12.489Z,101176.20
2023-08-17T08:21:43.227Z,101183.52
2023-08-17T08:24:22.202Z,101184.29
2023-08-17T08:27:01.951Z,101188.09
2023-08-17T08:29:32.616Z,101186.52
2023-08-17T08:32:04.537Z,101186.13
2023-08-17T08:34:35.423Z,101187.65
2023-08-17T08:37:06.732Z,101189.02
2023-08-17T08:39:52.628Z,101190.35
2023-08-17T08:42:24.360Z,101190.24
2023-08-17T08:44:55.389Z,101187.79
2023-08-17T08:47:28.142Z,101194.95
2023-08-17T08:50:03.707Z,101191.02
2023-08-17T08:52:37.803Z,101186.27
2023-08-17T08:55:14.189Z,101189.98
2023-08-17T08:57:51.662Z,101184.98
2023-08-17T09:00:23.239Z,101187.44
2023-08-17T09:02:54.634Z,101188.42
2023-08-17T09:05:26.108Z,101187.92
2023-08-17T09:07:58.720Z,101188.84
2023-08-17T09:10:31.814Z,101188.02
2023-08-17T09:13:03.450Z,101187.58
2023-08-17T09:15:34.210Z,101191.70
2023-08-17T09:18:07.435Z,101185.23
2023-08-17T09:20:47.332Z,101184.88
2023-08-17T09:23:21.202Z,101188.48
2023-08-17T09:25:58.980Z,101189.80
2023-08-17T09:28:32.384Z,101190.25
2023-08-17T09:31:04.870Z,101187.70
2023-08-17T09:33:36.603Z,101184.95
2023-08-17T09:36:07.823Z,101183.20
2023-08-17T09:38:39.466Z,101180.68
2023-08-17T09:41:10.444Z,101184.46
2023-08-17T09:43:41.014Z,101185.17
2023-08-17T09:46:13.010Z,101182.23
2023-08-17T09:48:45.282Z,101181.48
2023-08-17T09:51:18.551Z,101185.29
2023-08-17T09:54:00.019Z,101183.12
2023-08-17T09:56:31.846Z,101179.76
2023-08-17T09:59:02.429Z,101180.34
2023-08-17T10:01:33.634Z,101178.56
2023-08-17T10:04:06.356Z,101178.26
2023-08-17T10:06:41.244Z,101182.01
2023-08-17T10:09:17.086Z,101183.22
2023-08-17T10:11:53.869Z,101184.81
2023-08-17T10:14:31.690Z,101186.56
2023-08-17T10:17:11.420Z,101183.35
2023-08-17T10:19:53.008Z,101180.80
2023-08-17T10:22:30.578Z,101182.86
2023-08-17T10:25:02.582Z,101187.27
2023-08-17T10:27:34.539Z,101189.10
2023-08-17T10:30:09.305Z,101194.06
2023-08-17T10:32:42.590Z,101196.34
2023-08-17T10:35:13.600Z,101196.71
2023-08-17T10:37:44.935Z,101203.11
2023-08-17T10:40:16.078Z,101201.30
2023-08-17T10:42:55.681Z,101194.52
2023-08-17T10:45:37.994Z,101191.38
2023-08-17T10:48:30.292Z,101190.30
2023-08-17T10:51:06.430Z,101191.95
2023-08-17T10:53:44.274Z,101194.53
2023-08-17T10:56:18.752Z,101190.88
2023-08-17T10:58:53.353Z,101190.48
2023-08-17T11:01:38.039Z,101192.45
2023-08-17T11:04:18.709Z,101196.18
2023-08-17T11:07:02.472Z,101198.64
2023-08-17T11:09:33.365Z,101196.81
2023-08-17T11:12:06.964Z,101196.48
2023-08-17T11:14:38.116Z,101200.56
2023-08-17T11:17:11.465Z,101195.15
2023-08-17T11:19:45.584Z,101195.58
2023-08-17T11:22:17.926Z,101194.09
2023-08-17T11:24:52.077Z,101204.80
2023-08-17T11:27:24.125Z,101202.77
2023-08-17T11:29:55.670Z,101205.13
2023-08-17T11:32:26.964Z,101203.86
2023-08-17T11:34:59.627Z,101206.56
2023-08-17T11:37:30.693Z,101206.05
2023-08-17T11:40:01.432Z,101209.77
2023-08-17T11:42:32.546Z,101209.33
2023-08-17T11:45:03.962Z,101209.33
2023-08-17T11:47:35.104Z,101207.30
2023-08-17T11:50:19.164Z,101207.26
2023-08-17T11:52:51.579Z,101208.16
2023-08-17T11:55:22.618Z,101203.09
2023-08-17T11:57:53.563Z,101207.33
2023-08-17T12:00:26.706Z,101209.08
2023-08-17T12:02:57.755Z,101206.35
2023-08-17T12:05:30.274Z,101208.52
2023-08-17T12:08:01.732Z,101207.84
2023-08-17T12:10:33.029Z,101207.10
2023-08-17T12:13:04.038Z,101206.65
2023-08-17T12:15:36.698Z,101207.20
2023-08-17T12:18:08.536Z,101205.89
2023-08-17T12:20:39.456Z,101206.04
2023-08-17T12:23:10.170Z,101206.30
2023-08-17T12:25:40.915Z,101207.46
2023-08-17T12:28:14.531Z,101206.27
2023-08-17T12:30:45.667Z,101204.08
2023-08-17T12:33:17.279Z,101207.88
2023-08-17T12:35:48.481Z,101204.47
2023-08-17T12:38:19.034Z,101205.63
2023-08-17T12:40:49.811Z,101203.64
2023-08-17T12:43:20.646Z,101198.64
2023-08-17T12:45:52.382Z,101200.06
2023-08-17T12:48:22.934Z,101197.84
2023-08-17T12:50:53.717Z,101198.20
2023-08-17T12:53:24.314Z,101199.91
2023-08-17T12:55:56.442Z,101198.77
2023-08-17T12:58:27.217Z,101200.71
2023-08-17T13:00:58.657Z,101200.95
2023-08-17T13:03:29.779Z,101204.49
2023-08-17T13:06:00.385Z,101201.72
2023-08-17T13:08:31.765Z,101203.83
2023-08-17T13:11:02.333Z,101206.73
2023-08-17T13:13:32.973Z,101201.88
2023-08-17T13:16:05.376Z,101199.00
2023-08-17T13:18:37.559Z,101199.98
2023-08-17T13:21:09.087Z,101201.59
2023-08-17T13:23:40.950Z,101201.28
2023-08-17T13:26:11.930Z,101201.16
2023-08-17T13:28:43.130Z,101198.73
2023-08-17T13:31:23.963Z,101198.33
2023-08-17T13:33:55.866Z,101188.61
2023-08-17T13:36:27.150Z,101186.23
2023-08-17T13:38:58.368Z,101185.64
2023-08-17T13:41:29.492Z,101186.23
2023-08-17T13:44:02.064Z,101188.14
2023-08-17T13:46:32.792Z,101186.41
2023-08-17T13:49:03.821Z,101187.17
2023-08-17T13:51:34.555Z,101189.54
2023-08-17T13:54:05.811Z,101187.54
2023-08-17T13:56:36.816Z,101183.77
2023-08-17T13:59:07.883Z,101182.16
2023-08-17T14:01:39.026Z,101186.77
2023-08-17T14:04:12.680Z,101188.55
2023-08-17T14:06:43.913Z,101183.89
2023-08-17T14:09:14.763Z,101184.92
2023-08-17T14:11:45.691Z,101188.17
2023-08-17T14:14:16.963Z,101183.98
2023-08-17T14:16:47.640Z,101184.04
2023-08-17T14:19:18.834Z,101183.58
2023-08-17T14:21:49.526Z,101181.05
2023-08-17T14:24:20.293Z,101180.95
2023-08-17T14:26:51.407Z,101177.77
2023-08-17T14:29:22.171Z,101178.53
2023-08-17T14:31:56.050Z,101177.71
2023-08-17T14:34:27.827Z,101177.44
2023-08-17T14:36:58.577Z,101178.36
2023-08-17T14:39:29.526Z,101177.36
2023-08-17T14:42:00.575Z,101176.64
2023-08-17T14:44:31.848Z,101173.77
2023-08-17T14:47:02.767Z,101175.45
2023-08-17T14:49:33.254Z,101172.08
2023-08-17T14:52:04.644Z,101172.92
2023-08-17T14:54:35.224Z,101172.36
2023-08-17T14:57:06.777Z,101168.70
2023-08-17T14:59:38.176Z,101166.41
2023-08-17T15:02:10.573Z,101166.56
2023-08-17T15:04:41.913Z,101165.30
2023-08-17T15:07:12.665Z,101162.66
2023-08-17T15:09:43.341Z,101170.60
2023-08-17T15:12:13.997Z,101168.92
2023-08-17T15:14:44.863Z,101167.84
2023-08-17T15:17:15.937Z,101172.75
2023-08-17T15:19:46.520Z,101175.98
2023-08-17T15:22:17.595Z,101177.04
2023-08-17T15:24:48.444Z,101175.91
2023-08-17T15:27:20.003Z,101178.05
2023-08-17T15:29:51.269Z,101177.23
2023-08-17T15:32:22.469Z,101177.04
2023-08-17T15:34:54.921Z,101181.50
2023-08-17T15:37:29.870Z,101182.83
2023-08-17T15:40:01.286Z,101181.27
2023-08-17T15:42:31.861Z,101177.79
2023-08-17T15:45:02.681Z,101176.63
2023-08-17T15:47:34.031Z,101176.80
2023-08-17T15:50:05.678Z,101176.25
2023-08-17T15:52:36.297Z,101173.97
2023-08-17T15:55:08.828Z,101169.09
2023-08-17T15:57:40.031Z,101166.20
2023-08-17T16:00:13.028Z,101165.09
2023-08-17T16:02:44.204Z,101160.88
2023-08-17T16:05:15.405Z,101163.64
2023-08-17T16:07:46.394Z,101162.50
2023-08-17T16:10:17.024Z,101162.48
2023-08-17T16:12:47.811Z,101160.27
2023-08-17T16:15:19.258Z,101155.38
2023-08-17T16:17:50.264Z,101152.89
2023-08-17T16:20:21.056Z,101150.01
2023-08-17T16:22:52.724Z,101151.39
2023-08-17T16:25:29.837Z,101159.63
2023-08-17T16:27:59.268Z,101162.58
2023-08-17T16:30:29.871Z,101163.65
2023-08-17T16:33:00.458Z,101161.05
2023-08-17T16:35:31.537Z,101156.12
2023-08-17T16:38:02.614Z,101160.05
2023-08-17T16:40:38.173Z,101156.19
2023-08-17T16:43:09.804Z,101159.31
2023-08-17T16:45:42.018Z,101157.05
2023-08-17T16:48:12.745Z,101153.17
2023-08-17T16:50:43.608Z,101157.25
2023-08-17T16:53:14.562Z,101155.73
2023-08-17T16:55:48.649Z,101158.55
2023-08-17T16:58:25.626Z,101157.30
2023-08-17T17:00:56.892Z,101161.29
2023-08-17T17:03:28.281Z,101161.66
2023-08-17T17:05:59.408Z,101159.06
2023-08-17T17:08:46.934Z,101164.95
2023-08-17T17:11:17.541Z,101161.54
2023-08-17T17:13:48.693Z,101158.42
2023-08-17T17:16:21.272Z,101157.48
2023-08-17T17:18:52.636Z,101162.91
2023-08-17T17:21:24.299Z,101168.64
2023-08-17T17:23:54.924Z,101167.61
2023-08-17T17:26:26.219Z,101172.98
2023-08-17T17:28:57.047Z,101176.61
2023-08-17T17:31:28.320Z,101172.99
2023-08-17T17:33:58.988Z,101170.03
2023-08-17T17:36:29.931Z,101172.25
2023-08-17T17:39:01.230Z,101175.79
2023-08-17T17:41:31.989Z,101176.05
2023-08-17T17:44:03.254Z,101175.80
2023-08-17T17:46:35.045Z,101173.97
2023-08-17T17:49:07.405Z,101172.58
2023-08-17T17:51:38.224Z,101168.27
2023-08-17T17:54:09.566Z,101167.11
2023-08-17T17:56:44.164Z,101173.55
2023-08-17T17:59:15.386Z,101176.30
2023-08-17T18:01:45.998Z,101176.20
2023-08-17T18:04:16.762Z,101174.98
2023-08-17T18:06:47.496Z,101177.02
2023-08-17T18:09:17.933Z,101176.95
2023-08-17T18:11:48.370Z,101176.01
2023-08-17T18:14:20.499Z,101174.52
2023-08-17T18:16:51.153Z,101175.92
2023-08-17T18:19:21.788Z,101172.69
2023-08-17T18:21:52.540Z,101173.83
2023-08-17T18:24:23.164Z,101173.64
2023-08-17T18:26:54.690Z,101170.15
2023-08-17T18:29:25.778Z,101174.73
2023-08-17T18:31:56.443Z,101182.05
2023-08-17T18:34:27.198Z,101181.70
2023-08-17T18:36:57.838Z,101177.66
2023-08-17T18:39:28.586Z,101174.41
2023-08-17T18:41:59.200Z,101179.17
2023-08-17T18:44:30.096Z,101179.02
2023-08-17T18:47:00.710Z,101185.64
2023-08-17T18:49:31.560Z,101182.89
2023-08-17T18:52:02.835Z,101187.89
2023-08-17T18:54:37.641Z,101189.59
2023-08-17T18:57:08.514Z,101193.81
2023-08-17T18:59:39.565Z,101195.27
2023-08-17T19:02:10.646Z,101188.83
2023-08-17T19:04:41.529Z,101181.70
2023-08-17T19:07:12.137Z,101182.40
2023-08-17T19:09:47.070Z,101181.59
2023-08-17T19:12:19.289Z,101187.88
2023-08-17T19:14:50.184Z,101193.87
2023-08-17T19:17:21.842Z,101192.18
2023-08-17T19:19:52.776Z,101189.80
2023-08-17T19:22:23.635Z,101187.34
2023-08-17T19:24:54.193Z,101191.66
2023-08-17T19:27:25.086Z,101192.66
2023-08-17T19:29:55.581Z,101189.35
2023-08-17T19:32:27.025Z,101189.48
2023-08-17T19:34:58.555Z,101190.91
2023-08-17T19:37:31.945Z,101193.43
2023-08-17T19:40:05.020Z,101185.59
2023-08-17T19:42:35.794Z,101187.11
2023-08-17T19:45:07.190Z,101184.20
2023-08-17T19:47:38.180Z,101190.52
2023-08-17T19:50:10.835Z,101197.75
2023-08-17T19:52:41.572Z,101195.70
2023-08-17T19:55:14.188Z,101192.73
2023-08-17T19:57:44.662Z,101186.88
2023-08-17T20:00:19.245Z,101179.98
2023-08-17T20:02:51.758Z,101180.63
2023-08-17T20:05:22.349Z,101178.30
2023-08-17T20:07:53.057Z,101180.01
2023-08-17T20:10:23.851Z,101178.74
2023-08-17T20:12:55.528Z,101183.17
2023-08-17T20:15:26.948Z,101182.83
2023-08-17T20:17:58.047Z,101187.19
2023-08-17T20:20:28.794Z,101187.92
2023-08-17T20:23:00.321Z,101187.63
2023-08-17T20:25:31.286Z,101183.35
2023-08-17T20:28:02.443Z,101183.67
2023-08-17T20:30:33.465Z,101186.20
2023-08-17T20:33:04.554Z,101186.55
2023-08-17T20:35:35.720Z,101184.92
2023-08-17T20:38:06.733Z,101179.62
2023-08-17T20:40:37.466Z,101179.27
2023-08-17T20:43:08.345Z,101180.20
2023-08-17T20:45:40.921Z,101179.45
2023-08-17T20:48:11.943Z,101175.14
2023-08-17T20:50:45.190Z,101175.03
2023-08-17T20:53:17.141Z,101176.27
2023-08-17T20:55:49.113Z,101179.45
2023-08-17T20:58:20.104Z,101169.21
2023-08-17T21:00:51.311Z,101166.45
2023-08-17T21:03:22.328Z,101165.27
2023-08-17T21:05:53.482Z,101165.84
2023-08-17T21:08:23.986Z,101168.70
2023-08-17T21:10:55.283Z,101169.95
2023-08-17T21:13:26.002Z,101167.46
2023-08-17T21:16:06.692Z,101161.61
2023-08-17T21:18:37.972Z,101162.43
2023-08-17T21:21:09.243Z,101164.55
2023-08-17T21:23:39.798Z,101161.16
2023-08-17T21:26:10.541Z,101155.31
2023-08-17T21:28:41.585Z,101152.23
2023-08-17T21:31:12.308Z,101146.27
2023-08-17T21:33:42.908Z,101140.35
2023-08-17T21:36:13.850Z,101139.81
2023-08-17T21:38:44.896Z,101136.26
2023-08-17T21:41:16.186Z,101141.82
2023-08-17T21:43:47.198Z,101150.64
2023-08-17T21:46:18.265Z,101158.05
2023-08-17T21:48:49.280Z,101155.17
2023-08-17T21:51:20.666Z,101158.08
2023-08-17T21:53:51.199Z,101159.77
2023-08-17T21:56:21.857Z,101163.27
2023-08-17T21:58:53.084Z,101164.96
2023-08-17T22:01:24.534Z,101165.34
2023-08-17T22:03:55.207Z,101170.52
2023-08-17T22:06:26.249Z,101175.85
2023-08-17T22:08:57.071Z,101173.38
2023-08-17T22:11:28.057Z,101172.73
2023-08-17T22:13:58.914Z,101181.68
2023-08-17T22:16:29.954Z,101185.91
2023-08-17T22:19:01.120Z,101186.65
2023-08-17T22:21:32.855Z,101189.49
2023-08-17T22:24:03.417Z,101186.77
2023-08-17T22:26:34.525Z,101182.45
2023-08-17T22:29:05.540Z,101181.80
2023-08-17T22:31:36.488Z,101184.46
2023-08-17T22:34:07.354Z,101187.50
2023-08-17T22:36:37.915Z,101189.58
2023-08-17T22:39:09.283Z,101189.50
2023-08-17T22:41:40.249Z,101191.80
2023-08-17T22:44:10.836Z,101193.25
2023-08-17T22:46:41.957Z,101196.04
2023-08-17T22:49:12.955Z,101196.52
2023-08-17T22:51:43.563Z,101201.58
2023-08-17T22:54:14.191Z,101206.79
2023-08-17T22:56:45.746Z,101206.44
2023-08-17T22:59:16.373Z,101201.86
2023-08-17T23:01:47.588Z,101199.91
2023-08-17T23:04:19.767Z,101200.09
2023-08-17T23:06:51.044Z,101196.25
2023-08-17T23:09:21.645Z,101194.63
2023-08-17T23:11:52.288Z,101190.45
2023-08-17T23:14:23.814Z,101190.58
2023-08-17T23:16:55.271Z,101184.80
2023-08-17T23:19:26.060Z,101184.36
2023-08-17T23:21:57.302Z,101190.52
2023-08-17T23:24:27.994Z,101187.33
2023-08-17T23:26:59.817Z,101188.02
2023-08-17T23:29:31.150Z,101184.61
2023-08-17T23:32:09.295Z,101178.53
2023-08-17T23:34:51.744Z,101175.08
2023-08-17T23:37:22.418Z,101166.66
2023-08-17T23:39:53.134Z,101161.64
2023-08-17T23:42:23.798Z,101154.84
2023-08-17T23:44:54.632Z,101151.69
2023-08-17T23:47:25.569Z,101150.86
2023-08-17T23:49:56.326Z,101142.56
2023-08-17T23:52:27.048Z,101135.33
2023-08-17T23:54:57.802Z,101129.36
2023-08-17T23:57:29.529Z,101128.57
